Time;durP1;ratioP1;P1;durP2;ratioP2;P2;SDS_P1;SDS_P2;PMS_P1;PMS_P2;Temp;Humidity;BMP_temperature;BMP_pressure;BME280_temperature;BME280_humidity;BME280_pressure;Samples;Min_cycle;Max_cycle;Signal;HPM_P1;HPM_P2
2023/09/06 00:01:27;;;;;;;;;;;22.90;56.40;;;;;;5105993;28;19932;-60
2023/09/06 00:03:55;;;;;;;;;;;22.90;56.40;;;;;;5090348;28;19970;-58
2023/09/06 00:06:24;;;;;;;;;;;22.90;56.40;;;;;;5099161;28;19935;-59
2023/09/06 00:08:50;;;;;;;;;;;22.90;56.40;;;;;;5099229;28;19931;-60
2023/09/06 00:11:17;;;;;;;;;;;22.90;56.40;;;;;;5095813;28;19927;-58
2023/09/06 00:13:44;;;;;;;;;;;22.90;56.40;;;;;;5112335;27;19924;-59
2023/09/06 00:16:11;;;;;;;;;;;22.90;56.40;;;;;;5100777;28;19924;-58
2023/09/06 00:18:37;;;;;;;;;;;22.90;56.40;;;;;;5091286;28;19928;-62
2023/09/06 00:21:05;;;;;;;;;;;22.90;56.40;;;;;;5090184;28;19931;-61
2023/09/06 00:23:34;;;;;;;;;;;22.90;56.40;;;;;;5100077;28;19979;-59
2023/09/06 00:26:01;;;;;;;;;;;22.90;56.40;;;;;;5098492;28;19924;-60
2023/09/06 00:28:27;;;;;;;;;;;22.90;56.40;;;;;;5103835;28;19935;-59
2023/09/06 00:30:57;;;;;;;;;;;22.90;56.40;;;;;;5094778;28;19982;-60
2023/09/06 00:33:26;;;;;;;;;;;22.90;56.30;;;;;;5107322;28;19955;-58
2023/09/06 00:35:53;;;;;;;;;;;22.90;56.40;;;;;;5085267;28;19924;-61
2023/09/06 00:38:20;;;;;;;;;;;22.90;56.40;;;;;;5115625;27;19931;-60
2023/09/06 00:40:51;;;;;;;;;;;22.90;56.40;;;;;;5100007;28;19928;-58
2023/09/06 00:43:18;;;;;;;;;;;22.90;56.40;;;;;;5086022;28;20027;-58
2023/09/06 00:45:45;;;;;;;;;;;22.90;56.40;;;;;;5096291;28;19977;-59
2023/09/06 00:48:12;;;;;;;;;;;22.90;56.40;;;;;;5098489;28;19932;-58
2023/09/06 00:50:39;;;;;;;;;;;22.90;56.40;;;;;;5107360;28;19924;-58
2023/09/06 00:53:06;;;;;;;;;;;22.90;56.40;;;;;;5096724;28;19924;-59
2023/09/06 00:55:33;;;;;;;;;;;22.90;56.30;;;;;;5098801;28;19925;-58
2023/09/06 00:58:01;;;;;;;;;;;22.90;56.40;;;;;;5098967;28;19928;-59
2023/09/06 01:00:29;;;;;;;;;;;22.90;56.40;;;;;;5098538;28;19924;-58
2023/09/06 01:02:56;;;;;;;;;;;22.90;56.30;;;;;;5107414;28;19924;-58
2023/09/06 01:05:23;;;;;;;;;;;22.90;56.40;;;;;;5089924;28;19924;-61
2023/09/06 01:07:51;;;;;;;;;;;22.90;56.40;;;;;;5107281;28;19928;-58
2023/09/06 01:10:18;;;;;;;;;;;22.90;56.40;;;;;;5089581;28;20018;-58
2023/09/06 01:12:45;;;;;;;;;;;22.90;56.40;;;;;;5094559;28;19924;-59
2023/09/06 01:15:13;;;;;;;;;;;22.90;56.40;;;;;;5090170;28;19924;-58
2023/09/06 01:17:41;;;;;;;;;;;22.90;56.40;;;;;;5090196;28;19969;-63
2023/09/06 01:20:15;;;;;;;;;;;22.90;56.40;;;;;;5106862;28;19954;-59
2023/09/06 01:22:42;;;;;;;;;;;22.90;56.40;;;;;;5091469;28;19925;-58
2023/09/06 01:25:11;;;;;;;;;;;22.90;56.40;;;;;;5108319;28;19924;-59
2023/09/06 01:27:38;;;;;;;;;;;22.90;56.30;;;;;;5082420;28;19924;-58
2023/09/06 01:30:07;;;;;;;;;;;22.90;56.40;;;;;;5107827;28;19924;-61
2023/09/06 01:32:34;;;;;;;;;;;22.90;56.40;;;;;;5089426;28;20018;-58
2023/09/06 01:35:01;;;;;;;;;;;22.90;56.40;;;;;;5098515;28;19924;-62
2023/09/06 01:37:27;;;;;;;;;;;22.90;56.40;;;;;;5089663;28;19936;-58
2023/09/06 01:39:54;;;;;;;;;;;22.90;56.40;;;;;;5100332;28;19923;-57
2023/09/06 01:42:23;;;;;;;;;;;22.90;56.40;;;;;;5102979;28;19924;-61
2023/09/06 01:44:50;;;;;;;;;;;22.90;56.40;;;;;;5096503;28;19952;-58
2023/09/06 01:47:16;;;;;;;;;;;22.90;56.40;;;;;;5101544;28;19924;-58
2023/09/06 01:49:44;;;;;;;;;;;22.90;56.40;;;;;;5101850;28;19928;-59
2023/09/06 01:52:11;;;;;;;;;;;22.90;56.40;;;;;;5097720;28;19947;-60
2023/09/06 01:54:38;;;;;;;;;;;22.90;56.40;;;;;;5100227;28;19935;-57
2023/09/06 01:57:06;;;;;;;;;;;22.90;56.40;;;;;;5076438;28;19924;-62
2023/09/06 01:59:34;;;;;;;;;;;22.90;56.40;;;;;;5101647;28;19926;-58
2023/09/06 02:02:01;;;;;;;;;;;22.90;56.40;;;;;;5102079;28;19931;-59
2023/09/06 02:04:28;;;;;;;;;;;22.90;56.40;;;;;;5104853;28;19924;-58
2023/09/06 02:06:54;;;;;;;;;;;22.90;56.40;;;;;;5111995;28;19935;-57
2023/09/06 02:09:21;;;;;;;;;;;22.90;56.40;;;;;;5100613;28;19931;-58
2023/09/06 02:11:48;;;;;;;;;;;22.90;56.40;;;;;;5100292;28;19963;-59
2023/09/06 02:14:15;;;;;;;;;;;22.90;56.30;;;;;;5104638;28;19976;-62
2023/09/06 02:16:45;;;;;;;;;;;22.90;56.30;;;;;;5097568;28;19928;-60
2023/09/06 02:19:12;;;;;;;;;;;22.90;56.40;;;;;;5092632;28;19932;-59
2023/09/06 02:21:39;;;;;;;;;;;22.90;56.40;;;;;;5116357;27;19977;-58
2023/09/06 02:24:08;;;;;;;;;;;22.90;56.40;;;;;;5085949;28;19966;-58
2023/09/06 02:26:36;;;;;;;;;;;22.90;56.40;;;;;;5107372;28;19924;-61
2023/09/06 02:29:04;;;;;;;;;;;22.90;56.40;;;;;;5128851;27;20021;-61
2023/09/06 02:31:31;;;;;;;;;;;22.90;56.40;;;;;;5091687;28;20174;-58
2023/09/06 02:33:59;;;;;;;;;;;22.90;56.40;;;;;;5102154;28;19928;-61
2023/09/06 02:36:26;;;;;;;;;;;22.90;56.40;;;;;;5096193;28;19928;-58
2023/09/06 02:38:53;;;;;;;;;;;22.90;56.40;;;;;;5102088;28;19924;-58
2023/09/06 02:41:20;;;;;;;;;;;22.90;56.40;;;;;;5091708;28;19928;-60
2023/09/06 02:43:47;;;;;;;;;;;22.90;56.40;;;;;;5100034;28;19959;-58
2023/09/06 02:46:15;;;;;;;;;;;22.90;56.40;;;;;;5103768;28;19988;-61
2023/09/06 02:48:46;;;;;;;;;;;22.90;56.40;;;;;;5103034;28;19924;-58
2023/09/06 02:51:15;;;;;;;;;;;22.90;56.40;;;;;;5125987;27;19935;-58
2023/09/06 02:53:45;;;;;;;;;;;22.90;56.40;;;;;;5093021;28;19973;-58
2023/09/06 02:56:13;;;;;;;;;;;22.90;56.40;;;;;;5100630;28;19923;-59
2023/09/06 02:58:42;;;;;;;;;;;22.90;56.40;;;;;;5085359;28;19925;-60
2023/09/06 03:01:19;;;;;;;;;;;22.90;56.40;;;;;;5124513;27;19928;-59
2023/09/06 03:03:47;;;;;;;;;;;22.90;56.40;;;;;;5100621;28;19924;-58
2023/09/06 03:06:18;;;;;;;;;;;22.90;56.40;;;;;;5109322;28;19928;-57
2023/09/06 03:08:45;;;;;;;;;;;22.90;56.40;;;;;;5095093;28;19927;-58
2023/09/06 03:11:14;;;;;;;;;;;22.90;56.40;;;;;;5102350;28;19924;-59
2023/09/06 03:13:41;;;;;;;;;;;22.90;56.40;;;;;;5091552;28;19920;-57
2023/09/06 03:16:13;;;;;;;;;;;22.90;56.40;;;;;;5101877;28;19945;-65
2023/09/06 03:18:40;;;;;;;;;;;22.90;56.40;;;;;;5074317;28;19996;-58
2023/09/06 03:21:07;;;;;;;;;;;22.90;56.40;;;;;;5100222;28;19988;-58
2023/09/06 03:23:35;;;;;;;;;;;22.90;56.40;;;;;;5100726;28;19966;-58
2023/09/06 03:26:02;;;;;;;;;;;22.90;56.40;;;;;;5093811;28;19932;-62
2023/09/06 03:28:29;;;;;;;;;;;22.90;56.40;;;;;;5091964;28;19931;-58
2023/09/06 03:30:58;;;;;;;;;;;22.90;56.40;;;;;;5090825;28;19928;-58
2023/09/06 03:33:26;;;;;;;;;;;22.90;56.40;;;;;;5095204;28;19928;-60
2023/09/06 03:35:52;;;;;;;;;;;22.90;56.30;;;;;;5085959;28;20015;-63
2023/09/06 03:38:25;;;;;;;;;;;22.90;56.40;;;;;;5089932;28;19928;-58
2023/09/06 03:40:53;;;;;;;;;;;22.90;56.40;;;;;;5108282;28;19967;-60
2023/09/06 03:43:29;;;;;;;;;;;22.90;56.40;;;;;;5104127;28;19966;-58
2023/09/06 03:45:58;;;;;;;;;;;22.90;56.40;;;;;;5090558;28;19928;-58
2023/09/06 03:48:27;;;;;;;;;;;22.90;56.40;;;;;;5094521;28;19987;-60
2023/09/06 03:50:55;;;;;;;;;;;22.90;56.30;;;;;;5085557;28;19925;-59
2023/09/06 03:53:23;;;;;;;;;;;22.90;56.40;;;;;;5094969;28;19974;-58
2023/09/06 03:55:50;;;;;;;;;;;22.90;56.40;;;;;;5102937;28;19939;-57
2023/09/06 03:58:18;;;;;;;;;;;22.90;56.40;;;;;;5106934;28;19924;-59
2023/09/06 04:00:47;;;;;;;;;;;22.90;56.40;;;;;;5107255;28;19928;-59
2023/09/06 04:03:14;;;;;;;;;;;22.90;56.40;;;;;;5089375;28;19964;-58
2023/09/06 04:05:41;;;;;;;;;;;22.90;56.40;;;;;;5089987;28;19994;-62
2023/09/06 04:08:09;;;;;;;;;;;22.90;56.40;;;;;;5092402;28;19924;-61
2023/09/06 04:10:36;;;;;;;;;;;22.90;56.40;;;;;;5117363;27;19931;-59
2023/09/06 04:13:03;;;;;;;;;;;22.90;56.40;;;;;;5089398;28;19924;-60
2023/09/06 04:15:34;;;;;;;;;;;22.90;56.40;;;;;;5117350;27;19924;-59
2023/09/06 04:18:01;;;;;;;;;;;22.90;56.40;;;;;;5106690;28;19955;-62
2023/09/06 04:20:31;;;;;;;;;;;22.90;56.40;;;;;;5089986;28;19924;-58
2023/09/06 04:22:57;;;;;;;;;;;22.90;56.40;;;;;;5104415;28;19924;-59
2023/09/06 04:25:26;;;;;;;;;;;22.90;56.40;;;;;;5069634;28;19924;-58
2023/09/06 04:27:54;;;;;;;;;;;22.90;56.40;;;;;;5105976;28;19924;-58
2023/09/06 04:30:28;;;;;;;;;;;22.90;56.40;;;;;;5115623;27;19977;-58
2023/09/06 04:32:57;;;;;;;;;;;22.90;56.40;;;;;;5091148;28;19924;-59
2023/09/06 04:35:24;;;;;;;;;;;22.90;56.40;;;;;;5103817;28;19984;-59
2023/09/06 04:37:53;;;;;;;;;;;22.90;56.40;;;;;;5104161;28;19931;-60
2023/09/06 04:40:20;;;;;;;;;;;22.90;56.40;;;;;;5112527;27;19934;-57
2023/09/06 04:42:47;;;;;;;;;;;22.90;56.40;;;;;;5101820;28;19924;-61
2023/09/06 04:45:14;;;;;;;;;;;22.90;56.40;;;;;;5093694;28;19928;-59
2023/09/06 04:47:43;;;;;;;;;;;22.90;56.40;;;;;;5109592;28;19924;-58
2023/09/06 04:50:12;;;;;;;;;;;22.90;56.40;;;;;;5100717;28;20322;-60
2023/09/06 04:52:43;;;;;;;;;;;22.90;56.40;;;;;;5090485;28;19977;-57
2023/09/06 04:55:12;;;;;;;;;;;22.90;56.40;;;;;;5101048;28;19950;-58
2023/09/06 04:57:39;;;;;;;;;;;22.90;56.40;;;;;;5104937;28;19996;-60
2023/09/06 05:00:15;;;;;;;;;;;22.90;56.40;;;;;;5123047;28;19924;-59
2023/09/06 05:02:43;;;;;;;;;;;22.90;56.40;;;;;;5105565;28;19931;-58
2023/09/06 05:05:10;;;;;;;;;;;22.90;56.40;;;;;;5090822;28;20018;-61
2023/09/06 05:07:38;;;;;;;;;;;22.90;56.40;;;;;;5089706;28;19928;-58
2023/09/06 05:10:05;;;;;;;;;;;22.90;56.40;;;;;;5089485;28;19928;-58
2023/09/06 05:12:31;;;;;;;;;;;22.90;56.40;;;;;;5089227;28;19931;-61
2023/09/06 05:14:58;;;;;;;;;;;22.90;56.40;;;;;;5090298;28;19954;-58
2023/09/06 05:17:25;;;;;;;;;;;22.90;56.40;;;;;;5094291;28;19924;-59
2023/09/06 05:19:52;;;;;;;;;;;22.90;56.40;;;;;;5110616;28;19931;-61
2023/09/06 05:22:19;;;;;;;;;;;22.90;56.40;;;;;;5101759;28;19997;-59
2023/09/06 05:24:47;;;;;;;;;;;22.90;56.40;;;;;;5093659;28;19924;-61
2023/09/06 05:27:14;;;;;;;;;;;22.90;56.40;;;;;;5093013;28;19934;-61
2023/09/06 05:29:41;;;;;;;;;;;22.90;56.40;;;;;;5093759;28;19924;-62
2023/09/06 05:32:07;;;;;;;;;;;22.90;56.40;;;;;;5103571;28;19923;-61
2023/09/06 05:34:34;;;;;;;;;;;22.90;56.40;;;;;;5102869;28;19924;-59
2023/09/06 05:37:01;;;;;;;;;;;22.90;56.40;;;;;;5104766;28;20190;-61
2023/09/06 05:39:30;;;;;;;;;;;22.90;56.40;;;;;;5098462;28;20105;-58
2023/09/06 05:41:58;;;;;;;;;;;22.90;56.40;;;;;;5104516;28;19923;-58
2023/09/06 05:44:25;;;;;;;;;;;22.90;56.40;;;;;;5098035;28;19924;-58
2023/09/06 05:46:52;;;;;;;;;;;22.90;56.40;;;;;;5121616;27;19924;-58
2023/09/06 05:49:19;;;;;;;;;;;22.90;56.40;;;;;;5097589;28;20289;-61
2023/09/06 05:51:45;;;;;;;;;;;22.90;56.40;;;;;;5105302;28;19976;-58
2023/09/06 05:54:12;;;;;;;;;;;22.90;56.40;;;;;;5102045;28;19974;-60
2023/09/06 05:56:39;;;;;;;;;;;22.90;56.40;;;;;;5099777;28;19923;-59
2023/09/06 05:59:07;;;;;;;;;;;22.90;56.40;;;;;;5099453;28;19981;-62
2023/09/06 06:01:34;;;;;;;;;;;22.90;56.40;;;;;;5105224;28;19931;-57
2023/09/06 06:04:01;;;;;;;;;;;22.90;56.40;;;;;;5094635;28;19928;-58
2023/09/06 06:06:27;;;;;;;;;;;22.90;56.40;;;;;;5092846;28;19936;-59
2023/09/06 06:08:54;;;;;;;;;;;22.90;56.40;;;;;;5105869;28;19953;-61
2023/09/06 06:11:22;;;;;;;;;;;22.90;56.40;;;;;;5087895;28;19934;-59
2023/09/06 06:13:49;;;;;;;;;;;22.90;56.40;;;;;;5121926;27;19954;-59
2023/09/06 06:16:17;;;;;;;;;;;22.90;56.40;;;;;;5114082;28;19928;-58
2023/09/06 06:18:43;;;;;;;;;;;22.90;56.40;;;;;;5101353;28;19924;-58
2023/09/06 06:21:11;;;;;;;;;;;22.90;56.40;;;;;;5109327;28;20187;-62
2023/09/06 06:23:38;;;;;;;;;;;22.90;56.40;;;;;;5108100;28;19924;-58
2023/09/06 06:26:04;;;;;;;;;;;22.90;56.40;;;;;;5102720;28;19935;-62
2023/09/06 06:28:31;;;;;;;;;;;22.90;56.40;;;;;;5104177;28;19935;-58
2023/09/06 06:30:58;;;;;;;;;;;23.00;56.40;;;;;;5129679;27;19924;-58
2023/09/06 06:33:26;;;;;;;;;;;22.90;56.40;;;;;;5099185;28;19977;-60
2023/09/06 06:35:53;;;;;;;;;;;22.90;56.40;;;;;;5092243;28;19924;-61
2023/09/06 06:38:19;;;;;;;;;;;22.90;56.40;;;;;;5097203;28;19978;-58
2023/09/06 06:40:46;;;;;;;;;;;23.00;56.40;;;;;;5099525;28;19924;-58
2023/09/06 06:43:13;;;;;;;;;;;23.00;56.40;;;;;;5100576;28;19935;-58
2023/09/06 06:45:46;;;;;;;;;;;22.90;56.40;;;;;;5100994;28;19928;-57
2023/09/06 06:48:13;;;;;;;;;;;22.90;56.40;;;;;;5095112;28;19931;-59
2023/09/06 06:50:41;;;;;;;;;;;22.90;56.40;;;;;;5098249;27;19963;-59
2023/09/06 06:53:09;;;;;;;;;;;22.90;56.40;;;;;;5091876;28;19924;-62
2023/09/06 06:55:37;;;;;;;;;;;22.90;56.40;;;;;;5098634;28;19968;-59
2023/09/06 06:58:04;;;;;;;;;;;22.90;56.90;;;;;;5095000;28;19924;-59
2023/09/06 07:00:31;;;;;;;;;;;22.90;56.40;;;;;;5103143;28;19924;-58
2023/09/06 07:02:58;;;;;;;;;;;22.90;56.40;;;;;;5108997;28;19923;-59
2023/09/06 07:05:25;;;;;;;;;;;22.90;56.40;;;;;;5099854;28;19942;-62
2023/09/06 07:07:53;;;;;;;;;;;23.00;56.40;;;;;;5093052;28;19927;-60
2023/09/06 07:10:21;;;;;;;;;;;22.90;56.40;;;;;;5100459;28;19930;-57
2023/09/06 07:12:48;;;;;;;;;;;23.00;56.40;;;;;;5099511;28;19924;-59
2023/09/06 07:15:15;;;;;;;;;;;23.00;56.50;;;;;;5104250;28;19967;-58
2023/09/06 07:17:42;;;;;;;;;;;22.90;56.40;;;;;;5122192;27;19932;-62
2023/09/06 07:20:09;;;;;;;;;;;22.90;56.40;;;;;;5076584;28;19924;-59
2023/09/06 07:22:36;;;;;;;;;;;23.00;56.40;;;;;;5103527;28;20022;-60
2023/09/06 07:25:04;;;;;;;;;;;23.00;56.40;;;;;;5111429;28;19935;-60
2023/09/06 07:27:31;;;;;;;;;;;23.00;56.40;;;;;;5095943;28;20019;-61
2023/09/06 07:29:58;;;;;;;;;;;23.00;56.40;;;;;;5114603;27;19928;-58
2023/09/06 07:32:25;;;;;;;;;;;23.00;56.40;;;;;;5091480;28;20258;-58
2023/09/06 07:34:51;;;;;;;;;;;23.00;56.40;;;;;;5108082;28;19943;-59
2023/09/06 07:37:18;;;;;;;;;;;23.00;56.40;;;;;;5127514;27;19924;-60
2023/09/06 07:39:45;;;;;;;;;;;23.00;56.40;;;;;;5095094;28;19982;-57
2023/09/06 07:42:13;;;;;;;;;;;23.00;56.40;;;;;;5091299;28;19931;-61
2023/09/06 07:44:40;;;;;;;;;;;23.00;56.40;;;;;;5095542;28;19924;-58
2023/09/06 07:47:07;;;;;;;;;;;23.00;56.40;;;;;;5089828;28;19931;-59
2023/09/06 07:49:33;;;;;;;;;;;23.00;56.40;;;;;;5087958;28;19927;-58
2023/09/06 07:52:04;;;;;;;;;;;23.00;56.50;;;;;;5107620;27;19947;-62
2023/09/06 07:54:31;;;;;;;;;;;23.00;56.50;;;;;;5088896;28;19963;-58
2023/09/06 07:56:58;;;;;;;;;;;23.00;56.50;;;;;;5090200;28;19930;-57
2023/09/06 07:59:26;;;;;;;;;;;23.00;56.50;;;;;;5089574;28;19924;-58
2023/09/06 08:01:53;;;;;;;;;;;23.00;56.50;;;;;;5097775;28;19935;-58
2023/09/06 08:04:21;;;;;;;;;;;23.00;56.40;;;;;;5121434;27;19924;-59
2023/09/06 08:06:48;;;;;;;;;;;23.00;56.40;;;;;;5086335;28;19935;-60
2023/09/06 08:09:15;;;;;;;;;;;23.00;56.50;;;;;;5097599;28;19923;-58
2023/09/06 08:11:41;;;;;;;;;;;22.90;56.40;;;;;;5106856;28;19924;-59
2023/09/06 08:14:08;;;;;;;;;;;23.00;56.40;;;;;;5090442;28;19924;-59
2023/09/06 08:16:36;;;;;;;;;;;23.00;56.50;;;;;;5088856;28;19924;-58
2023/09/06 08:19:03;;;;;;;;;;;23.00;56.50;;;;;;5088207;28;19941;-59
2023/09/06 08:21:30;;;;;;;;;;;23.00;56.40;;;;;;5089257;28;19943;-61
2023/09/06 08:23:57;;;;;;;;;;;23.00;56.40;;;;;;5089292;28;19924;-60
2023/09/06 08:26:23;;;;;;;;;;;23.00;56.50;;;;;;5088917;28;19931;-59
2023/09/06 08:28:50;;;;;;;;;;;23.00;56.50;;;;;;5089574;28;19924;-61
2023/09/06 08:31:17;;;;;;;;;;;23.00;56.40;;;;;;5089983;28;19924;-59
2023/09/06 08:33:45;;;;;;;;;;;23.00;56.50;;;;;;5089582;28;19925;-57
2023/09/06 08:36:12;;;;;;;;;;;23.00;56.40;;;;;;5082173;28;20124;-63
2023/09/06 08:38:40;;;;;;;;;;;23.00;56.50;;;;;;5093603;28;20019;-58
2023/09/06 08:41:07;;;;;;;;;;;23.00;56.50;;;;;;5124131;27;19934;-63
2023/09/06 08:43:35;;;;;;;;;;;23.00;56.40;;;;;;5090024;28;19928;-62
2023/09/06 08:46:02;;;;;;;;;;;23.00;56.50;;;;;;5108357;28;19924;-59
2023/09/06 08:48:29;;;;;;;;;;;23.00;56.50;;;;;;5112687;28;19932;-59
2023/09/06 08:50:57;;;;;;;;;;;23.00;56.40;;;;;;5091715;28;19924;-60
2023/09/06 08:53:23;;;;;;;;;;;23.00;56.50;;;;;;5093255;28;19954;-59
2023/09/06 08:55:50;;;;;;;;;;;23.00;56.50;;;;;;5093442;28;19939;-61
2023/09/06 08:58:17;;;;;;;;;;;23.00;56.40;;;;;;5092622;28;19924;-60
2023/09/06 09:00:44;;;;;;;;;;;23.00;56.40;;;;;;5126147;27;19924;-59
2023/09/06 09:03:10;;;;;;;;;;;23.00;56.50;;;;;;5089119;28;19925;-63
2023/09/06 09:05:37;;;;;;;;;;;23.00;56.50;;;;;;5099014;28;19924;-59
2023/09/06 09:08:08;;;;;;;;;;;23.00;56.50;;;;;;5100384;28;19935;-58
2023/09/06 09:10:35;;;;;;;;;;;23.00;56.50;;;;;;5110803;28;19974;-59
2023/09/06 09:13:01;;;;;;;;;;;23.00;56.50;;;;;;5095216;28;19928;-62
2023/09/06 09:15:30;;;;;;;;;;;23.00;56.50;;;;;;5106499;28;19924;-58
2023/09/06 09:17:57;;;;;;;;;;;23.00;56.50;;;;;;5102447;28;19923;-60
2023/09/06 09:20:23;;;;;;;;;;;23.00;56.50;;;;;;5107208;28;19924;-61
2023/09/06 09:22:50;;;;;;;;;;;23.00;56.50;;;;;;5098027;28;19924;-58
2023/09/06 09:25:23;;;;;;;;;;;23.00;56.50;;;;;;5093722;28;19924;-58
2023/09/06 09:27:51;;;;;;;;;;;23.00;56.50;;;;;;5093741;28;19959;-58
2023/09/06 09:30:18;;;;;;;;;;;23.00;56.50;;;;;;5093340;28;19924;-58
2023/09/06 09:32:44;;;;;;;;;;;23.00;56.50;;;;;;5094717;28;19928;-59
2023/09/06 09:35:11;;;;;;;;;;;23.00;56.50;;;;;;5094371;28;19928;-59
2023/09/06 09:37:39;;;;;;;;;;;23.00;56.50;;;;;;5093257;28;19931;-58
2023/09/06 09:40:16;;;;;;;;;;;23.00;56.50;;;;;;5101444;28;19928;-61
2023/09/06 09:42:53;;;;;;;;;;;23.00;56.50;;;;;;5115179;28;19932;-61
2023/09/06 09:45:20;;;;;;;;;;;23.00;56.50;;;;;;5096131;28;19925;-58
2023/09/06 09:47:47;;;;;;;;;;;23.00;56.50;;;;;;5110579;28;19935;-58
2023/09/06 09:50:14;;;;;;;;;;;23.00;56.50;;;;;;5102671;28;19932;-58
2023/09/06 09:52:41;;;;;;;;;;;23.00;56.50;;;;;;5108837;28;19952;-60
2023/09/06 09:55:08;;;;;;;;;;;23.00;56.50;;;;;;5102404;28;19940;-60
2023/09/06 09:57:35;;;;;;;;;;;23.00;56.50;;;;;;5101683;28;19924;-60
2023/09/06 10:00:06;;;;;;;;;;;23.00;56.50;;;;;;5102338;28;19928;-61
2023/09/06 10:02:35;;;;;;;;;;;23.00;56.50;;;;;;5092332;28;19928;-58
2023/09/06 10:05:02;;;;;;;;;;;23.00;56.50;;;;;;5102309;28;19927;-62
2023/09/06 10:07:30;;;;;;;;;;;23.10;56.60;;;;;;5111699;27;19920;-60
2023/09/06 10:09:57;;;;;;;;;;;23.00;56.50;;;;;;5093561;28;19924;-59
2023/09/06 10:12:23;;;;;;;;;;;23.00;56.50;;;;;;5104574;28;19934;-59
2023/09/06 10:14:50;;;;;;;;;;;23.10;56.60;;;;;;5106332;28;19932;-58
2023/09/06 10:17:19;;;;;;;;;;;23.00;56.50;;;;;;5083085;28;19930;-59
2023/09/06 10:19:46;;;;;;;;;;;23.00;56.50;;;;;;5092006;28;19936;-58
2023/09/06 10:22:14;;;;;;;;;;;23.00;56.50;;;;;;5093034;28;19939;-60
2023/09/06 10:24:43;;;;;;;;;;;23.00;56.50;;;;;;5091605;28;19925;-61
2023/09/06 10:27:11;;;;;;;;;;;23.00;56.50;;;;;;5113210;27;19924;-60
2023/09/06 10:29:49;;;;;;;;;;;23.10;56.60;;;;;;5091731;28;19933;-59
2023/09/06 10:32:16;;;;;;;;;;;23.00;56.50;;;;;;5091171;28;19924;-61
2023/09/06 10:34:45;;;;;;;;;;;23.00;56.60;;;;;;5092960;28;19935;-58
2023/09/06 10:37:12;;;;;;;;;;;23.00;56.50;;;;;;5099842;28;19951;-60
2023/09/06 10:39:47;;;;;;;;;;;23.00;56.50;;;;;;5101437;28;19972;-58
2023/09/06 10:42:17;;;;;;;;;;;23.00;56.60;;;;;;5100229;28;19939;-59
2023/09/06 10:44:59;;;;;;;;;;;23.00;56.50;;;;;;5101768;28;20023;-61
2023/09/06 10:47:26;;;;;;;;;;;23.10;56.60;;;;;;5097140;28;19934;-60
2023/09/06 10:50:09;;;;;;;;;;;23.10;56.70;;;;;;5106408;28;19924;-58
2023/09/06 10:52:40;;;;;;;;;;;23.00;56.60;;;;;;5106149;28;20006;-60
2023/09/06 10:55:13;;;;;;;;;;;23.10;56.70;;;;;;5091321;28;19971;-60
2023/09/06 10:57:50;;;;;;;;;;;23.00;56.60;;;;;;5092897;28;19928;-60
2023/09/06 11:00:18;;;;;;;;;;;23.00;56.60;;;;;;5094990;28;19924;-59
2023/09/06 11:02:45;;;;;;;;;;;23.00;56.60;;;;;;5097300;28;19924;-58
2023/09/06 11:05:31;;;;;;;;;;;23.00;56.60;;;;;;5092820;28;19924;-60
2023/09/06 11:07:57;;;;;;;;;;;23.00;56.60;;;;;;5107672;28;20018;-58
2023/09/06 11:10:24;;;;;;;;;;;23.00;56.60;;;;;;5102911;28;19931;-60
2023/09/06 11:12:53;;;;;;;;;;;23.00;56.60;;;;;;5094803;28;19928;-58
2023/09/06 11:15:20;;;;;;;;;;;23.00;56.60;;;;;;5091344;28;19924;-60
2023/09/06 11:17:47;;;;;;;;;;;23.00;56.60;;;;;;5098397;28;19923;-58
2023/09/06 11:20:14;;;;;;;;;;;23.00;56.60;;;;;;5111401;27;19931;-59
2023/09/06 11:22:49;;;;;;;;;;;23.00;56.60;;;;;;5089669;28;19964;-59
2023/09/06 11:25:17;;;;;;;;;;;23.00;56.60;;;;;;5098789;28;19928;-59
2023/09/06 11:27:45;;;;;;;;;;;23.00;56.60;;;;;;5099993;28;19982;-59
2023/09/06 11:30:16;;;;;;;;;;;23.00;56.60;;;;;;5099173;28;19946;-62
2023/09/06 11:32:44;;;;;;;;;;;23.00;56.60;;;;;;5090921;28;19928;-62
2023/09/06 11:35:11;;;;;;;;;;;23.00;56.60;;;;;;5088842;28;19931;-59
2023/09/06 11:37:38;;;;;;;;;;;23.00;56.60;;;;;;5101094;28;19951;-58
2023/09/06 11:40:12;;;;;;;;;;;23.00;56.60;;;;;;5090797;28;20022;-61
2023/09/06 11:42:39;;;;;;;;;;;23.00;56.60;;;;;;5099042;28;20026;-58
2023/09/06 11:45:09;;;;;;;;;;;23.00;56.60;;;;;;5075602;28;19924;-62
2023/09/06 11:47:37;;;;;;;;;;;23.00;56.60;;;;;;5091447;28;19924;-59
2023/09/06 11:50:06;;;;;;;;;;;23.00;56.60;;;;;;5091305;28;19942;-60
2023/09/06 11:52:34;;;;;;;;;;;23.00;56.60;;;;;;5124549;27;19924;-59
2023/09/06 11:55:05;;;;;;;;;;;23.00;56.60;;;;;;5093295;28;19924;-60
2023/09/06 11:57:37;;;;;;;;;;;23.00;56.60;;;;;;5104090;28;19923;-58
2023/09/06 12:00:17;;;;;;;;;;;23.10;56.70;;;;;;5107050;28;22127;-61
2023/09/06 12:02:47;;;;;;;;;;;23.00;56.60;;;;;;5106446;28;19927;-58
2023/09/06 12:05:16;;;;;;;;;;;23.00;56.60;;;;;;5094057;28;19927;-61
2023/09/06 12:07:43;;;;;;;;;;;23.10;56.70;;;;;;5090681;28;19920;-60
2023/09/06 12:10:11;;;;;;;;;;;23.10;56.70;;;;;;5073929;28;19963;-63
2023/09/06 12:12:41;;;;;;;;;;;23.00;56.60;;;;;;5092298;28;19970;-58
2023/09/06 12:15:13;;;;;;;;;;;23.10;56.70;;;;;;5094095;28;19931;-61
2023/09/06 12:17:41;;;;;;;;;;;23.10;56.70;;;;;;5121396;27;19920;-58
2023/09/06 12:20:10;;;;;;;;;;;23.10;56.70;;;;;;5092441;28;19924;-63
2023/09/06 12:22:37;;;;;;;;;;;23.10;56.70;;;;;;5111183;28;20242;-62
2023/09/06 12:25:04;;;;;;;;;;;23.10;56.70;;;;;;5101792;28;19924;-58
2023/09/06 12:27:31;;;;;;;;;;;23.10;56.70;;;;;;5103597;28;19938;-61
2023/09/06 12:29:59;;;;;;;;;;;23.10;56.70;;;;;;5102530;28;19924;-60
2023/09/06 12:32:28;;;;;;;;;;;23.10;56.80;;;;;;5102129;28;19919;-58
2023/09/06 12:34:55;;;;;;;;;;;23.10;56.80;;;;;;5118216;27;19986;-59
2023/09/06 12:37:22;;;;;;;;;;;23.10;56.70;;;;;;5086154;28;19973;-58
2023/09/06 12:39:49;;;;;;;;;;;23.10;56.70;;;;;;5100383;28;19924;-60
2023/09/06 12:42:16;;;;;;;;;;;23.10;56.70;;;;;;5092500;28;20010;-59
2023/09/06 12:44:43;;;;;;;;;;;23.10;56.70;;;;;;5102631;28;19924;-60
2023/09/06 12:47:16;;;;;;;;;;;23.10;56.80;;;;;;5091215;28;19924;-60
2023/09/06 12:49:43;;;;;;;;;;;23.10;56.80;;;;;;5098904;28;19980;-60
2023/09/06 12:52:13;;;;;;;;;;;23.10;56.80;;;;;;5100331;28;19931;-61
2023/09/06 12:54:40;;;;;;;;;;;23.10;56.80;;;;;;5112785;28;19931;-58
2023/09/06 12:57:08;;;;;;;;;;;23.10;56.80;;;;;;5116632;28;19924;-60
2023/09/06 12:59:34;;;;;;;;;;;23.10;56.80;;;;;;5128103;28;19935;-57
2023/09/06 13:02:01;;;;;;;;;;;23.10;56.80;;;;;;5101642;28;19924;-60
2023/09/06 13:04:29;;;;;;;;;;;23.10;56.70;;;;;;5098234;28;19920;-59
2023/09/06 13:06:57;;;;;;;;;;;23.10;56.80;;;;;;5090027;28;19969;-58
2023/09/06 13:09:23;;;;;;;;;;;23.10;56.80;;;;;;5098179;28;19931;-58
2023/09/06 13:11:50;;;;;;;;;;;23.10;56.80;;;;;;5095906;28;19924;-60
2023/09/06 13:14:17;;;;;;;;;;;23.10;57.30;;;;;;5123648;28;19992;-61
2023/09/06 13:16:44;;;;;;;;;;;23.10;56.80;;;;;;5090001;28;19942;-59
2023/09/06 13:19:12;;;;;;;;;;;23.10;56.80;;;;;;5089390;28;19970;-60
2023/09/06 13:21:40;;;;;;;;;;;23.10;56.80;;;;;;5095828;28;19931;-58
2023/09/06 13:24:07;;;;;;;;;;;23.10;56.80;;;;;;5126961;28;19928;-60
2023/09/06 13:26:34;;;;;;;;;;;23.10;56.80;;;;;;5095725;28;19920;-58
2023/09/06 13:29:00;;;;;;;;;;;23.10;56.80;;;;;;5089952;28;19947;-60
2023/09/06 13:31:27;;;;;;;;;;;23.10;56.80;;;;;;5109608;28;19978;-62
2023/09/06 13:33:55;;;;;;;;;;;23.10;56.80;;;;;;5118633;28;19924;-58
2023/09/06 13:36:22;;;;;;;;;;;23.10;56.80;;;;;;5095095;28;19977;-58
2023/09/06 13:38:50;;;;;;;;;;;23.10;56.80;;;;;;5114188;28;19924;-57
2023/09/06 13:41:17;;;;;;;;;;;23.10;56.80;;;;;;5100432;28;19924;-59
2023/09/06 13:43:44;;;;;;;;;;;23.10;56.80;;;;;;5091457;28;19925;-60
2023/09/06 13:46:11;;;;;;;;;;;23.10;56.80;;;;;;5103571;28;19928;-60
2023/09/06 13:48:38;;;;;;;;;;;23.10;56.90;;;;;;5093322;28;20274;-59
2023/09/06 13:51:05;;;;;;;;;;;23.10;56.80;;;;;;5092779;28;19928;-61
2023/09/06 13:53:31;;;;;;;;;;;23.10;56.80;;;;;;5092331;28;19928;-58
2023/09/06 13:55:59;;;;;;;;;;;23.10;56.80;;;;;;5126325;27;19928;-60
2023/09/06 13:58:28;;;;;;;;;;;23.10;56.90;;;;;;5092408;28;19928;-59
2023/09/06 14:00:55;;;;;;;;;;;23.10;56.90;;;;;;5094075;28;19923;-58
2023/09/06 14:03:22;;;;;;;;;;;23.10;56.90;;;;;;5092079;28;19924;-59
2023/09/06 14:05:49;;;;;;;;;;;23.10;56.90;;;;;;5094044;28;19950;-58
2023/09/06 14:08:16;;;;;;;;;;;23.10;56.90;;;;;;5110498;28;19942;-59
2023/09/06 14:10:43;;;;;;;;;;;23.20;56.90;;;;;;5089768;28;19928;-60
2023/09/06 14:13:11;;;;;;;;;;;23.10;56.90;;;;;;5100619;28;19924;-62
2023/09/06 14:15:38;;;;;;;;;;;23.10;56.90;;;;;;5102128;28;19974;-58
2023/09/06 14:18:06;;;;;;;;;;;23.10;56.90;;;;;;5092127;28;19924;-59
2023/09/06 14:20:34;;;;;;;;;;;23.10;56.90;;;;;;5089991;28;19959;-61